Time;durP1;ratioP1;P1;durP2;ratioP2;P2;SDS_P1;SDS_P2;PMS_P1;PMS_P2;Temp;Humidity;BMP_temperature;BMP_pressure;BME280_temperature;BME280_humidity;BME280_pressure;Samples;Min_cycle;Max_cycle;Signal;HPM_P1;HPM_P2
2023/08/10 00:01:45;;;;;;;10.00;3.90;;;;;;;15.89;100.00;101211.19;107069;1258;62508;-67
2023/08/10 00:04:14;;;;;;;6.20;4.10;;;;;;;15.70;100.00;101211.99;107064;1247;58945;-68
2023/08/10 00:06:44;;;;;;;10.10;4.10;;;;;;;15.52;100.00;101211.03;107056;1248;61346;-68
2023/08/10 00:09:13;;;;;;;6.90;4.40;;;;;;;15.39;100.00;101210.04;107094;1248;61725;-68
2023/08/10 00:11:42;;;;;;;9.90;4.80;;;;;;;15.34;100.00;101210.81;107071;1248;61262;-68
2023/08/10 00:14:11;;;;;;;8.00;4.50;;;;;;;15.35;100.00;101213.14;106997;1248;60107;-67
2023/08/10 00:16:40;;;;;;;9.30;3.90;;;;;;;15.31;100.00;101213.81;107101;1248;62803;-66
2023/08/10 00:19:09;;;;;;;7.60;4.60;;;;;;;15.22;100.00;101212.54;107090;1248;58813;-67
2023/08/10 00:21:38;;;;;;;7.00;4.60;;;;;;;15.10;100.00;101211.38;107070;1248;59497;-67
2023/08/10 00:24:07;;;;;;;9.40;4.50;;;;;;;14.96;100.00;101209.45;107026;1258;71463;-69
2023/08/10 00:26:36;;;;;;;8.30;4.70;;;;;;;14.84;100.00;101205.86;107068;1246;72408;-69
2023/08/10 00:29:05;;;;;;;8.80;4.90;;;;;;;14.73;100.00;101203.77;107154;1258;69046;-67
2023/08/10 00:31:34;;;;;;;8.40;4.70;;;;;;;14.78;100.00;101204.73;107245;1248;74286;-68
2023/08/10 00:34:03;;;;;;;11.50;4.40;;;;;;;14.70;100.00;101202.45;107158;1248;59068;-69
2023/08/10 00:36:32;;;;;;;8.30;4.30;;;;;;;14.76;100.00;101198.25;107107;1248;58927;-70
2023/08/10 00:39:01;;;;;;;5.90;4.00;;;;;;;14.77;100.00;101199.19;107059;1251;61681;-66
2023/08/10 00:41:30;;;;;;;9.20;4.90;;;;;;;14.84;100.00;101198.30;107084;1248;61877;-68
2023/08/10 00:43:59;;;;;;;10.80;4.60;;;;;;;14.74;100.00;101196.52;107120;1247;59548;-68
2023/08/10 00:46:28;;;;;;;8.40;4.30;;;;;;;14.70;100.00;101200.01;107013;1258;62590;-68
2023/08/10 00:48:57;;;;;;;8.70;4.70;;;;;;;14.68;100.00;101204.20;106889;1247;57987;-68
2023/08/10 00:51:26;;;;;;;8.40;3.90;;;;;;;14.68;100.00;101202.10;107030;1248;60993;-68
2023/08/10 00:53:55;;;;;;;8.60;4.40;;;;;;;14.65;100.00;101202.67;107036;1248;73734;-69
2023/08/10 00:56:24;;;;;;;5.90;4.10;;;;;;;14.65;100.00;101203.43;107044;1247;63904;-67
2023/08/10 00:58:54;;;;;;;7.90;4.50;;;;;;;14.62;100.00;101200.61;107051;1247;60314;-65
2023/08/10 01:01:23;;;;;;;7.90;3.90;;;;;;;14.63;100.00;101202.36;107137;1248;72710;-68
2023/08/10 01:03:52;;;;;;;8.90;4.20;;;;;;;14.57;100.00;101200.70;107052;1248;63163;-68
2023/08/10 01:06:40;;;;;;;8.60;4.40;;;;;;;14.62;100.00;101199.98;107112;1247;59125;-68
2023/08/10 01:09:21;;;;;;;7.70;4.50;;;;;;;14.71;100.00;101195.89;107029;1248;71582;-68
2023/08/10 01:12:06;;;;;;;7.80;4.10;;;;;;;14.81;100.00;101197.84;107083;1258;61748;-68
2023/08/10 01:14:43;;;;;;;6.00;4.40;;;;;;;15.17;100.00;101200.14;107039;1246;70293;-69
2023/08/10 01:17:20;;;;;;;6.40;4.50;;;;;;;15.44;100.00;101197.98;107069;1248;74001;-68
2023/08/10 01:19:52;;;;;;;7.10;4.30;;;;;;;15.70;100.00;101198.27;107034;1248;59043;-68
2023/08/10 01:22:35;;;;;;;10.30;5.20;;;;;;;15.68;100.00;101204.26;106966;1248;60267;-67
2023/08/10 01:25:08;;;;;;;8.50;4.30;;;;;;;15.60;100.00;101204.51;107102;1258;61933;-67
2023/08/10 01:27:38;;;;;;;9.10;4.30;;;;;;;15.49;100.00;101203.91;107039;1248;71466;-67
2023/08/10 01:30:08;;;;;;;10.10;4.10;;;;;;;15.55;100.00;101206.02;107125;1248;68934;-68
2023/08/10 01:32:37;;;;;;;7.40;4.70;;;;;;;15.59;100.00;101204.23;107060;1248;64097;-67
2023/08/10 01:35:07;;;;;;;8.90;3.80;;;;;;;15.61;100.00;101197.41;107042;1248;58928;-70
2023/08/10 01:37:37;;;;;;;7.30;4.50;;;;;;;15.55;100.00;101198.81;107092;1247;57279;-67
2023/08/10 01:40:09;;;;;;;9.00;4.20;;;;;;;15.45;100.00;101198.26;107018;1249;62569;-66
2023/08/10 01:42:41;;;;;;;6.90;4.20;;;;;;;15.27;100.00;101199.94;107105;1258;61502;-68
2023/08/10 01:45:11;;;;;;;8.80;4.40;;;;;;;15.16;100.00;101197.92;107126;1246;59745;-68
2023/08/10 01:47:44;;;;;;;7.20;4.40;;;;;;;15.03;100.00;101196.35;107008;1249;72815;-70
2023/08/10 01:50:17;;;;;;;10.90;4.60;;;;;;;15.02;100.00;101205.23;107059;1248;62887;-69
2023/08/10 01:52:51;;;;;;;7.80;4.40;;;;;;;15.14;100.00;101205.43;107237;1248;58970;-69
2023/08/10 01:55:20;;;;;;;9.20;4.40;;;;;;;15.06;100.00;101205.23;107134;1247;73876;-70
2023/08/10 01:57:50;;;;;;;13.60;4.30;;;;;;;14.91;100.00;101201.96;106980;1247;72456;-68
2023/08/10 02:00:19;;;;;;;7.00;4.40;;;;;;;14.86;100.00;101200.97;106907;1248;70345;-66
2023/08/10 02:02:48;;;;;;;11.60;5.10;;;;;;;14.99;100.00;101204.81;106842;1248;63096;-68
2023/08/10 02:05:17;;;;;;;13.40;5.40;;;;;;;14.86;100.00;101203.91;106747;1251;59127;-67
2023/08/10 02:07:49;;;;;;;12.40;5.20;;;;;;;14.69;100.00;101207.98;106868;1255;57562;-67
2023/08/10 02:10:18;;;;;;;11.70;5.10;;;;;;;14.47;100.00;101205.69;107035;1248;62904;-67
2023/08/10 02:12:47;;;;;;;14.40;5.70;;;;;;;14.28;100.00;101204.23;107028;1249;61427;-67
2023/08/10 02:15:16;;;;;;;10.10;5.60;;;;;;;14.09;100.00;101205.05;106999;1258;60633;-65
2023/08/10 02:17:45;;;;;;;15.40;5.90;;;;;;;13.96;100.00;101206.24;107018;1255;62763;-66
2023/08/10 02:20:14;;;;;;;11.30;5.50;;;;;;;13.84;100.00;101209.64;107081;1255;58958;-66
2023/08/10 02:22:51;;;;;;;12.60;6.10;;;;;;;13.75;100.00;101216.83;107119;1247;60416;-67
2023/08/10 02:25:21;;;;;;;10.90;5.40;;;;;;;13.73;100.00;101216.14;106928;1248;74257;-66
2023/08/10 02:27:50;;;;;;;11.80;5.80;;;;;;;13.92;100.00;101217.75;106996;1251;61778;-67
2023/08/10 02:30:19;;;;;;;11.00;6.10;;;;;;;13.95;100.00;101216.17;107215;1248;59745;-67
2023/08/10 02:32:49;;;;;;;13.20;6.00;;;;;;;14.30;100.00;101217.71;107161;1248;63378;-68
2023/08/10 02:35:19;;;;;;;12.70;5.40;;;;;;;14.82;100.00;101221.23;107268;1244;62120;-67
2023/08/10 02:37:48;;;;;;;11.30;5.60;;;;;;;15.07;100.00;101224.64;107347;1244;59085;-68
2023/08/10 02:40:17;;;;;;;10.40;5.80;;;;;;;15.25;100.00;101224.02;107190;1255;62522;-67
2023/08/10 02:42:46;;;;;;;9.60;4.90;;;;;;;15.32;100.00;101223.91;107090;1248;60994;-68
2023/08/10 02:45:15;;;;;;;13.00;5.50;;;;;;;15.16;100.00;101226.50;107342;1255;60146;-67
2023/08/10 02:47:44;;;;;;;8.60;4.60;;;;;;;14.95;100.00;101228.77;107195;1251;63053;-67
2023/08/10 02:50:13;;;;;;;12.00;4.90;;;;;;;14.71;100.00;101229.18;107220;1252;59086;-69
2023/08/10 02:52:42;;;;;;;11.00;4.80;;;;;;;14.49;100.00;101232.17;107275;1254;58303;-68
2023/08/10 02:55:11;;;;;;;9.10;4.80;;;;;;;14.48;100.00;101238.36;107185;1256;63290;-68
2023/08/10 02:57:41;;;;;;;9.10;5.00;;;;;;;14.62;100.00;101237.42;107270;1244;60831;-70
2023/08/10 03:00:12;;;;;;;9.10;4.90;;;;;;;14.92;100.00;101237.77;107268;1244;59843;-67
2023/08/10 03:02:41;;;;;;;10.40;4.80;;;;;;;15.07;100.00;101234.59;107171;1247;73820;-70
2023/08/10 03:05:11;;;;;;;9.00;4.60;;;;;;;15.14;100.00;101232.81;107330;1244;58937;-67
2023/08/10 03:07:40;;;;;;;9.60;4.90;;;;;;;15.02;100.00;101232.20;107198;1245;59135;-69
2023/08/10 03:10:09;;;;;;;10.10;4.30;;;;;;;14.74;100.00;101229.60;107177;1255;63195;-68
2023/08/10 03:12:39;;;;;;;10.50;4.90;;;;;;;14.47;100.00;101229.48;107225;1247;71483;-68
2023/08/10 03:15:11;;;;;;;8.20;4.50;;;;;;;14.30;100.00;101237.02;107308;1248;71147;-67
2023/08/10 03:17:40;;;;;;;10.20;5.10;;;;;;;14.21;100.00;101234.42;107175;1256;62457;-68
2023/08/10 03:20:12;;;;;;;10.90;4.80;;;;;;;14.15;100.00;101236.98;107090;1248;59633;-68
2023/08/10 03:22:42;;;;;;;11.60;5.10;;;;;;;14.14;100.00;101239.72;107187;1244;61053;-70
2023/08/10 03:25:11;;;;;;;11.50;5.50;;;;;;;14.26;100.00;101242.23;107188;1246;73411;-68
2023/08/10 03:27:40;;;;;;;9.70;5.90;;;;;;;14.24;100.00;101251.36;107145;1247;71775;-66
2023/08/10 03:30:12;;;;;;;7.60;5.10;;;;;;;14.28;100.00;101249.08;107104;1248;70450;-68
2023/08/10 03:32:41;;;;;;;15.90;8.70;;;;;;;14.32;100.00;101252.29;107095;1256;63429;-68
2023/08/10 03:35:11;;;;;;;11.80;5.80;;;;;;;14.42;100.00;101256.19;107138;1254;58972;-68
2023/08/10 03:37:40;;;;;;;10.10;5.30;;;;;;;14.53;100.00;101255.87;107115;1251;60605;-67
2023/08/10 03:40:11;;;;;;;10.00;5.30;;;;;;;14.79;100.00;101253.43;107017;1257;73612;-68
2023/08/10 03:42:40;;;;;;;8.30;5.10;;;;;;;14.99;100.00;101250.51;108000;1247;73319;-69
2023/08/10 03:45:10;;;;;;;9.20;5.10;;;;;;;15.14;100.00;101252.25;107129;1255;59404;-68
2023/08/10 03:47:41;;;;;;;13.20;5.70;;;;;;;15.21;100.00;101251.19;107108;1256;62485;-66
2023/08/10 03:50:11;;;;;;;14.40;6.20;;;;;;;15.20;100.00;101253.52;107101;1246;59021;-68
2023/08/10 03:52:40;;;;;;;16.90;7.30;;;;;;;15.18;100.00;101254.81;107089;1245;59025;-68
2023/08/10 03:55:13;;;;;;;18.50;9.20;;;;;;;15.49;100.00;101255.35;107138;1248;62902;-68
2023/08/10 03:57:42;;;;;;;19.80;8.40;;;;;;;15.55;100.00;101256.96;107072;1256;61410;-66
2023/08/10 04:00:13;;;;;;;14.70;5.90;;;;;;;15.63;100.00;101254.13;107170;1246;68048;-69
2023/08/10 04:02:45;;;;;;;14.50;6.90;;;;;;;15.59;100.00;101257.77;109544;1244;74338;-72
2023/08/10 04:05:14;;;;;;;15.30;6.80;;;;;;;15.62;100.00;101259.14;109547;1245;63343;-70
2023/08/10 04:07:44;;;;;;;17.60;6.90;;;;;;;15.61;100.00;101258.82;109436;1247;57346;-70
2023/08/10 04:10:13;;;;;;;14.10;6.50;;;;;;;15.67;100.00;101255.30;109478;1244;73515;-70
2023/08/10 04:12:42;;;;;;;11.50;5.70;;;;;;;15.67;100.00;101252.80;109395;1243;61965;-69
2023/08/10 04:15:11;;;;;;;9.70;5.50;;;;;;;15.66;100.00;101252.50;109477;1245;59036;-69
2023/08/10 04:17:40;;;;;;;11.30;6.20;;;;;;;15.59;100.00;101250.92;109430;1244;62247;-67
2023/08/10 04:20:10;;;;;;;14.10;5.30;;;;;;;15.55;100.00;101250.21;109430;1246;57268;-68
2023/08/10 04:22:38;;;;;;;15.90;6.50;;;;;;;15.55;100.00;101252.90;109502;1244;61077;-67
2023/08/10 04:25:07;;;;;;;16.40;5.70;;;;;;;15.52;100.00;101252.40;109509;1244;63147;-68
2023/08/10 04:27:36;;;;;;;14.70;5.80;;;;;;;15.65;100.00;101249.95;109451;1244;61448;-68
2023/08/10 04:30:08;;;;;;;12.70;6.10;;;;;;;15.78;100.00;101253.23;109503;1244;59027;-68
2023/08/10 04:32:38;;;;;;;14.60;6.10;;;;;;;15.75;100.00;101255.24;109474;1244;73610;-68
2023/08/10 04:35:07;;;;;;;13.90;6.00;;;;;;;15.70;100.00;101261.15;109405;1245;62034;-68
2023/08/10 04:37:36;;;;;;;16.60;6.60;;;;;;;15.73;100.00;101262.11;109491;1245;57318;-68
2023/08/10 04:40:09;;;;;;;18.80;6.80;;;;;;;15.82;100.00;101259.52;109470;1244;73064;-68
2023/08/10 04:42:40;;;;;;;22.90;6.70;;;;;;;15.93;100.00;101263.35;109295;1244;71701;-68
2023/08/10 04:45:09;;;;;;;16.50;6.70;;;;;;;16.04;100.00;101267.17;109312;1246;60340;-69
2023/08/10 04:47:39;;;;;;;12.90;6.60;;;;;;;16.18;100.00;101266.61;109335;1244;63002;-69
2023/08/10 04:50:09;;;;;;;24.80;7.10;;;;;;;16.38;100.00;101271.23;109241;1248;57717;-67
2023/08/10 04:52:40;;;;;;;12.60;7.00;;;;;;;16.59;100.00;101269.49;109387;1244;61039;-69
2023/08/10 04:55:11;;;;;;;16.70;8.60;;;;;;;16.84;100.00;101269.09;109196;1247;63855;-68
2023/08/10 04:57:40;;;;;;;12.60;7.10;;;;;;;17.00;100.00;101274.30;109161;1244;72022;-68
2023/08/10 05:00:13;;;;;;;23.70;8.00;;;;;;;17.14;100.00;101278.11;109291;1244;60066;-68
2023/08/10 05:02:42;;;;;;;19.50;7.30;;;;;;;17.23;100.00;101276.41;109330;1244;63038;-67
2023/08/10 05:05:11;;;;;;;20.40;8.00;;;;;;;17.29;100.00;101276.66;109321;1245;57238;-69
2023/08/10 05:07:41;;;;;;;14.90;6.80;;;;;;;17.35;100.00;101277.27;109458;1245;60948;-69
2023/08/10 05:10:10;;;;;;;18.20;7.40;;;;;;;17.50;100.00;101277.88;109487;1244;73093;-68
2023/08/10 05:12:39;;;;;;;19.20;7.10;;;;;;;17.58;100.00;101279.39;109393;1244;72969;-68
2023/08/10 05:15:09;;;;;;;24.40;8.00;;;;;;;17.60;100.00;101276.59;109483;1244;70104;-64
2023/08/10 05:17:39;;;;;;;18.00;7.40;;;;;;;17.59;100.00;101276.46;109465;1245;62928;-64
2023/08/10 05:20:12;;;;;;;15.60;6.90;;;;;;;17.55;100.00;101276.44;109567;1244;57974;-64
2023/08/10 05:22:42;;;;;;;16.60;7.10;;;;;;;17.63;100.00;101275.87;109497;1244;59996;-64
2023/08/10 05:25:12;;;;;;;19.30;7.50;;;;;;;17.80;100.00;101272.42;109640;1244;63163;-61
2023/08/10 05:27:46;;;;;;;17.60;7.40;;;;;;;17.94;100.00;101270.77;109467;1243;60635;-64
2023/08/10 05:30:15;;;;;;;19.10;7.70;;;;;;;18.04;100.00;101269.65;109627;1242;69703;-60
2023/08/10 05:32:44;;;;;;;16.70;7.50;;;;;;;18.19;100.00;101272.75;109476;1244;73517;-62
2023/08/10 05:35:14;;;;;;;18.00;7.70;;;;;;;18.17;100.00;101272.45;109397;1248;57778;-61
2023/08/10 05:37:43;;;;;;;17.50;6.70;;;;;;;18.20;100.00;101271.48;109426;1244;57492;-66
2023/08/10 05:40:12;;;;;;;16.50;7.80;;;;;;;18.19;100.00;101273.11;109392;1244;62791;-62
2023/08/10 05:42:42;;;;;;;15.60;7.30;;;;;;;18.17;100.00;101275.80;109481;1244;72009;-62
2023/08/10 05:45:20;;;;;;;14.80;7.60;;;;;;;18.33;100.00;101279.69;109383;1246;59470;-63
2023/08/10 05:47:50;;;;;;;17.40;7.10;;;;;;;18.39;100.00;101274.33;109346;1245;62594;-63
2023/08/10 05:50:19;;;;;;;16.50;8.00;;;;;;;18.44;100.00;101272.78;109408;1245;57263;-61
2023/08/10 05:52:48;;;;;;;17.30;7.60;;;;;;;18.56;100.00;101265.80;109609;1243;57143;-61
2023/08/10 05:55:17;;;;;;;15.50;7.70;;;;;;;18.67;100.00;101264.98;109474;1246;62776;-63
2023/08/10 05:57:46;;;;;;;17.60;7.50;;;;;;;18.94;100.00;101272.42;109485;1243;69750;-61
2023/08/10 06:00:16;;;;;;;15.00;7.90;;;;;;;19.03;100.00;101272.17;109575;1243;69672;-63
2023/08/10 06:02:45;;;;;;;18.40;7.10;;;;;;;19.14;100.00;101268.09;109559;1245;63446;-61
2023/08/10 06:05:14;;;;;;;19.90;7.90;;;;;;;19.20;100.00;101268.70;109532;1242;61288;-66
2023/08/10 06:07:47;;;;;;;16.40;7.50;;;;;;;19.27;100.00;101267.41;109364;1248;57787;-63
2023/08/10 06:10:18;;;;;;;13.70;6.50;;;;;;;19.50;100.00;101267.98;109617;1244;70926;-61
2023/08/10 06:12:47;;;;;;;22.40;7.20;;;;;;;19.69;100.00;101267.09;109398;1244;61215;-68
2023/08/10 06:15:16;;;;;;;18.70;6.20;;;;;;;19.92;100.00;101268.31;109582;1244;60327;-68
2023/08/10 09:10:16;;;;;;;4.50;1.80;;;;;;;26.68;58.46;101218.75;104368;1284;601520;-73
2023/08/10 09:12:44;;;;;;;3.40;1.90;;;;;;;26.73;57.29;101220.33;107202;1261;61526;-71
2023/08/10 09:15:19;;;;;;;4.70;2.60;;;;;;;26.80;55.14;101218.94;106871;1252;58956;-72
2023/08/10 09:17:52;;;;;;;3.40;2.20;;;;;;;26.78;56.07;101219.09;106737;1252;61155;-72
2023/08/10 09:20:23;;;;;;;4.00;1.90;;;;;;;26.87;57.65;101221.16;107038;1261;72190;-72
2023/08/10 09:22:55;;;;;;;9.30;2.40;;;;;;;26.99;56.19;101214.42;106816;1251;355936;-71
2023/08/10 09:25:25;;;;;;;8.20;1.90;;;;;;;27.10;56.15;101213.83;107108;1252;62332;-71
2023/08/10 09:27:54;;;;;;;3.00;1.90;;;;;;;27.24;56.69;101213.25;107149;1248;59030;-72
2023/08/10 09:30:23;;;;;;;5.80;1.90;;;;;;;27.48;55.12;101209.37;107202;1248;59123;-72
2023/08/10 09:32:52;;;;;;;4.70;1.70;;;;;;;27.51;55.06;101206.43;107177;1247;60914;-72
2023/08/10 09:35:21;;;;;;;3.50;1.70;;;;;;;27.92;54.96;101204.50;107174;1246;60925;-72
2023/08/10 09:37:59;;;;;;;7.50;2.50;;;;;;;28.10;53.64;101204.54;107127;1258;59125;-72
2023/08/10 09:40:28;;;;;;;3.60;1.90;;;;;;;27.99;53.14;101198.98;107063;1248;63639;-72
2023/08/10 09:42:57;;;;;;;4.30;1.50;;;;;;;28.15;51.25;101201.95;107063;1258;60379;-75
2023/08/10 09:45:27;;;;;;;4.70;1.90;;;;;;;28.20;49.42;101201.36;107224;1257;61307;-76
2023/08/10 09:47:56;;;;;;;2.90;1.50;;;;;;;28.23;48.53;101194.71;107286;1254;65243;-74
2023/08/10 09:50:25;;;;;;;4.20;1.70;;;;;;;28.28;47.85;101194.83;107249;1244;70461;-72
2023/08/10 09:52:54;;;;;;;2.40;1.40;;;;;;;28.17;47.96;101193.44;107085;1249;69973;-71
2023/08/10 09:55:23;;;;;;;4.80;1.50;;;;;;;27.69;47.91;101185.83;107009;1248;63666;-69
2023/08/10 09:57:52;;;;;;;4.40;1.40;;;;;;;27.82;48.63;101189.09;107138;1248;59025;-70
2023/08/10 10:00:22;;;;;;;2.50;1.40;;;;;;;28.00;48.40;101188.52;107115;1248;59079;-72
2023/08/10 10:02:52;;;;;;;3.70;2.00;;;;;;;28.30;48.35;101185.88;107090;1249;72556;-70
2023/08/10 10:05:22;;;;;;;2.80;1.30;;;;;;;28.07;45.92;101186.29;107240;1245;61612;-73
2023/08/10 10:08:06;;;;;;;3.10;1.40;;;;;;;28.43;46.61;101186.64;107134;1246;59827;-70
2023/08/10 10:10:36;;;;;;;3.00;1.40;;;;;;;28.89;46.85;101187.41;107096;1255;65194;-71
2023/08/10 10:13:09;;;;;;;7.00;2.20;;;;;;;28.91;45.11;101188.16;107113;1249;58485;-72
2023/08/10 10:15:44;;;;;;;3.20;1.50;;;;;;;29.18;42.74;101185.55;106923;1252;60766;-72
2023/08/10 10:18:14;;;;;;;4.10;1.40;;;;;;;29.01;42.44;101182.77;107061;1256;62589;-72
2023/08/10 10:20:45;;;;;;;2.20;1.30;;;;;;;28.99;41.00;101184.48;106998;1245;71253;-71
2023/08/10 10:23:19;;;;;;;2.90;1.30;;;;;;;29.02;40.74;101185.74;107013;1256;60176;-71
2023/08/10 10:26:03;;;;;;;6.00;2.00;;;;;;;28.92;42.71;101183.21;107053;1248;72990;-73
2023/08/10 10:28:33;;;;;;;4.50;2.00;;;;;;;29.27;43.32;101183.47;107070;1249;61795;-70
2023/08/10 10:31:10;;;;;;;4.60;1.50;;;;;;;29.49;43.17;101181.79;107061;1249;59015;-71
2023/08/10 10:41:45;;;;;;;4.10;2.20;;;;;;;31.11;41.34;101166.23;104208;1278;600224;-74
2023/08/10 10:44:14;;;;;;;2.30;1.40;;;;;;;30.87;41.83;101166.41;105995;1258;60234;-76
2023/08/10 10:46:43;;;;;;;2.10;1.10;;;;;;;31.30;40.85;101166.10;106057;1257;59053;-74
2023/08/10 10:49:18;;;;;;;3.80;1.90;;;;;;;30.90;40.93;101164.60;106103;1268;60357;-76
2023/08/10 10:51:59;;;;;;;3.50;1.60;;;;;;;31.24;40.61;101164.64;108351;1257;60801;-73
2023/08/10 10:54:34;;;;;;;3.90;1.50;;;;;;;30.57;40.75;101164.08;108359;1254;238379;-72
2023/08/10 10:57:03;;;;;;;3.60;1.50;;;;;;;30.77;40.22;101162.73;109369;1244;73962;-73
2023/08/10 10:59:34;;;;;;;3.50;1.80;;;;;;;30.59;41.24;101161.64;109318;1248;57652;-72
2023/08/10 11:02:03;;;;;;;2.50;1.70;;;;;;;30.11;41.97;101167.58;109448;1244;60428;-75
2023/08/10 11:04:32;;;;;;;5.10;2.30;;;;;;;29.65;43.64;101165.08;109324;1244;72955;-74
2023/08/10 11:07:01;;;;;;;2.60;2.00;;;;;;;29.64;44.23;101166.80;109437;1244;62078;-74
2023/08/10 11:09:30;;;;;;;4.60;2.00;;;;;;;29.62;44.99;101164.46;109448;1244;58992;-73
2023/08/10 11:12:00;;;;;;;3.10;1.80;;;;;;;29.05;46.29;101157.64;109398;1244;64199;-77
2023/08/10 11:14:29;;;;;;;12.10;2.00;;;;;;;28.78;47.00;101161.48;109320;1245;60676;-73
2023/08/10 11:16:57;;;;;;;9.30;2.10;;;;;;;28.78;47.80;101161.24;109387;1245;61636;-75
2023/08/10 11:19:30;;;;;;;4.30;2.00;;;;;;;28.78;48.53;101159.47;109314;1244;73104;-72
2023/08/10 11:21:59;;;;;;;4.70;1.90;;;;;;;28.51;48.26;101160.85;109386;1244;61245;-72
2023/08/10 11:24:28;;;;;;;3.00;1.80;;;;;;;28.68;48.60;101164.00;109488;1244;59078;-73
2023/08/10 11:26:57;;;;;;;2.30;1.70;;;;;;;29.05;47.15;101166.55;109336;1244;63300;-72
2023/08/10 11:29:28;;;;;;;3.50;1.70;;;;;;;28.97;45.86;101164.43;109375;1244;57752;-74
2023/08/10 11:31:57;;;;;;;1.90;1.40;;;;;;;29.02;44.22;101165.63;109413;1244;61841;-73
2023/08/10 11:34:28;;;;;;;13.00;11.20;;;;;;;29.10;43.60;101167.33;109479;1244;72436;-76
2023/08/10 11:36:58;;;;;;;3.50;1.60;;;;;;;28.78;44.48;101163.23;109482;1244;61765;-77
2023/08/10 11:39:26;;;;;;;3.50;1.90;;;;;;;28.84;45.01;101157.05;109463;1244;69443;-71
2023/08/10 11:41:56;;;;;;;4.20;1.90;;;;;;;28.69;46.09;101160.16;109440;1244;64371;-72
2023/08/10 11:44:36;;;;;;;3.50;1.90;;;;;;;28.76;46.25;101161.80;109335;1244;61414;-72
2023/08/10 11:47:05;;;;;;;5.00;2.00;;;;;;;28.77;45.67;101163.10;109338;1245;57042;-70
2023/08/10 11:49:35;;;;;;;3.70;1.70;;;;;;;28.56;45.72;101157.27;109541;1241;61909;-72
2023/08/10 11:52:04;;;;;;;3.00;1.40;;;;;;;28.94;44.48;101149.34;109703;1241;62436;-72
2023/08/10 11:54:37;;;;;;;1.90;1.50;;;;;;;29.37;43.81;101146.20;109672;1241;70819;-71
2023/08/10 11:57:12;;;;;;;3.80;1.80;;;;;;;29.91;43.69;101140.77;109614;1241;65816;-71
2023/08/10 11:59:42;;;;;;;3.60;1.70;;;;;;;30.10;41.82;101140.98;109376;1243;61933;-70
2023/08/10 12:02:14;;;;;;;2.30;1.50;;;;;;;30.35;39.98;101139.28;109653;1241;57828;-69
2023/08/10 12:04:44;;;;;;;2.30;1.60;;;;;;;30.19;39.98;101134.86;109514;1243;71495;-71
2023/08/10 12:07:22;;;;;;;1.90;1.30;;;;;;;30.45;37.66;101131.63;109608;1241;61981;-70
2023/08/10 12:09:51;;;;;;;2.70;1.30;;;;;;;30.92;36.21;101132.55;109564;1241;60325;-70
2023/08/10 12:12:23;;;;;;;5.00;1.50;;;;;;;31.17;36.46;101129.07;109558;1244;64278;-69
2023/08/10 12:14:54;;;;;;;2.90;1.60;;;;;;;31.17;35.86;101130.27;109264;1247;57687;-72
2023/08/10 12:17:23;;;;;;;2.50;1.40;;;;;;;31.31;35.63;101127.52;109376;1244;58051;-71
2023/08/10 12:19:52;;;;;;;4.20;1.70;;;;;;;31.99;35.02;101127.61;109432;1241;72719;-71
2023/08/10 12:22:20;;;;;;;3.10;1.60;;;;;;;31.86;35.24;101127.08;109475;1241;72522;-72
2023/08/10 12:24:49;;;;;;;4.40;1.60;;;;;;;32.28;34.98;101122.10;109404;1241;58968;-70
2023/08/10 12:27:18;;;;;;;3.10;1.60;;;;;;;32.67;33.64;101116.06;109462;1242;72316;-69
2023/08/10 12:29:47;;;;;;;4.80;1.60;;;;;;;32.92;34.55;101118.44;109434;1241;60869;-71
2023/08/10 12:32:15;;;;;;;4.30;1.70;;;;;;;32.99;35.34;101119.24;109405;1241;57883;-71
2023/08/10 12:34:44;;;;;;;4.30;2.30;;;;;;;32.99;35.41;101121.35;109504;1241;61437;-70
2023/08/10 12:37:13;;;;;;;3.60;1.90;;;;;;;33.35;35.10;101121.39;109551;1241;60676;-70
2023/08/10 12:39:42;;;;;;;2.80;1.70;;;;;;;32.25;36.44;101124.78;109420;1243;59787;-69
2023/08/10 12:42:11;;;;;;;6.90;2.10;;;;;;;31.86;36.89;101126.05;109416;1243;73764;-72
2023/08/10 12:44:39;;;;;;;3.30;1.70;;;;;;;30.80;38.83;101128.20;109452;1244;61438;-68
2023/08/10 12:47:08;;;;;;;3.80;2.00;;;;;;;30.27;40.05;101129.51;109432;1244;57229;-69
2023/08/10 12:49:37;;;;;;;4.00;2.00;;;;;;;30.17;40.91;101127.54;109436;1244;62539;-70
2023/08/10 12:52:06;;;;;;;3.10;1.80;;;;;;;30.37;40.17;101128.02;109463;1243;62438;-70
2023/08/10 12:54:35;;;;;;;3.00;2.00;;;;;;;30.09;40.51;101127.09;109422;1244;70085;-72
2023/08/10 12:57:04;;;;;;;4.80;2.00;;;;;;;30.18;41.58;101124.92;109349;1241;73552;-70
2023/08/10 12:59:33;;;;;;;3.90;1.90;;;;;;;30.46;40.49;101125.63;109519;1242;62106;-70
2023/08/10 13:02:02;;;;;;;3.10;1.80;;;;;;;30.35;41.43;101124.77;109536;1241;60770;-73
2023/08/10 13:04:30;;;;;;;4.60;2.10;;;;;;;30.69;40.63;101119.84;109462;1241;73163;-70
2023/08/10 13:06:59;;;;;;;5.10;2.20;;;;;;;30.56;40.96;101119.71;109571;1241;61502;-70
2023/08/10 13:09:28;;;;;;;8.70;1.80;;;;;;;30.54;40.54;101117.91;109469;1241;59825;-69
2023/08/10 13:11:58;;;;;;;4.70;2.20;;;;;;;30.87;40.02;101111.52;109468;1241;73853;-69
2023/08/10 13:14:26;;;;;;;4.00;2.40;;;;;;;31.51;39.43;101105.95;109631;1243;60549;-70
2023/08/10 13:16:55;;;;;;;3.20;1.90;;;;;;;31.83;37.00;101109.10;109503;1243;60192;-69
2023/08/10 13:19:24;;;;;;;3.50;1.80;;;;;;;31.80;36.14;101105.69;109497;1243;62817;-70
2023/08/10 13:21:54;;;;;;;2.80;1.50;;;;;;;32.20;34.96;101103.12;109626;1244;61423;-69
2023/08/10 13:24:22;;;;;;;4.00;1.70;;;;;;;32.21;34.56;101101.56;109598;1243;60807;-69
2023/08/10 13:26:51;;;;;;;7.20;1.90;;;;;;;32.78;33.98;101102.88;109474;1243;63612;-70
2023/08/10 13:29:20;;;;;;;3.60;1.80;;;;;;;32.35;34.06;101097.70;109474;1244;58025;-69
2023/08/10 13:31:49;;;;;;;3.40;1.70;;;;;;;31.87;35.55;101098.39;109441;1244;57312;-69
2023/08/10 13:34:18;;;;;;;2.70;1.80;;;;;;;32.49;34.30;101096.78;109419;1241;63800;-70
2023/08/10 13:36:47;;;;;;;3.90;1.80;;;;;;;32.48;34.75;101094.29;109524;1241;72349;-71
2023/08/10 13:39:16;;;;;;;3.00;1.50;;;;;;;33.04;33.49;101097.86;109454;1244;71090;-70
2023/08/10 13:41:44;;;;;;;2.80;1.60;;;;;;;32.59;34.06;101094.90;109350;1243;64751;-70
2023/08/10 13:44:14;;;;;;;3.10;1.80;;;;;;;31.52;36.25;101097.45;109365;1244;57662;-70
2023/08/10 13:46:43;;;;;;;3.30;2.00;;;;;;;30.53;38.07;101095.89;109406;1244;57720;-71
2023/08/10 13:49:12;;;;;;;4.70;1.70;;;;;;;30.01;39.00;101095.65;109484;1244;61190;-70
2023/08/10 13:51:41;;;;;;;3.80;1.70;;;;;;;29.97;39.11;101096.95;109520;1241;60928;-72
2023/08/10 13:54:11;;;;;;;4.50;1.70;;;;;;;29.57;40.16;101102.11;109496;1244;60042;-70
2023/08/10 13:57:05;;;;;;;3.60;1.90;;;;;;;29.11;40.55;101098.67;109403;1241;73814;-70
2023/08/10 13:59:35;;;;;;;3.60;1.70;;;;;;;28.74;42.15;101100.86;109558;1241;62163;-69
2023/08/10 14:02:05;;;;;;;3.90;2.00;;;;;;;28.61;42.69;101098.58;109523;1241;61325;-69
2023/08/10 14:04:34;;;;;;;3.10;1.80;;;;;;;28.59;42.39;101092.64;109558;1241;71684;-69
2023/08/10 14:07:04;;;;;;;6.50;4.10;;;;;;;28.32;44.47;101096.66;109533;1241;71184;-70
2023/08/10 14:09:33;;;;;;;3.10;2.00;;;;;;;28.04;44.70;101100.05;109432;1244;70935;-69
2023/08/10 14:12:02;;;;;;;5.50;2.50;;;;;;;27.86;45.29;101094.80;109214;1244;74236;-71
2023/08/10 14:14:30;;;;;;;3.60;1.90;;;;;;;27.78;44.88;101093.08;109427;1244;57638;-69
2023/08/10 14:16:59;;;;;;;5.00;2.10;;;;;;;27.69;45.78;101091.12;109601;1244;57183;-71
2023/08/10 14:19:28;;;;;;;3.60;2.10;;;;;;;27.63;46.35;101091.55;109632;1244;61999;-71
2023/08/10 14:21:57;;;;;;;9.20;2.70;;;;;;;27.59;45.90;101087.89;109501;1244;71939;-69
2023/08/10 14:24:25;;;;;;;3.70;2.10;;;;;;;27.55;45.89;101091.17;109569;1241;61252;-70